Time;durP1;ratioP1;P1;durP2;ratioP2;P2;SDS_P1;SDS_P2;PMS_P1;PMS_P2;Temp;Humidity;BMP_temperature;BMP_pressure;BME280_temperature;BME280_humidity;BME280_pressure;Samples;Min_cycle;Max_cycle;Signal;HPM_P1;HPM_P2
2023/02/01 00:01:31;;;;;;;13.75;7.13;;;;;;;1.88;66.51;100804.09;6262922;23;20028;-88
2023/02/01 00:04:00;;;;;;;16.27;7.90;;;;;;;1.98;65.84;100816.75;6287991;22;20074;-88
2023/02/01 00:06:27;;;;;;;12.93;7.10;;;;;;;1.92;66.47;100809.19;6258667;22;20007;-87
2023/02/01 00:08:55;;;;;;;17.90;7.80;;;;;;;1.85;66.45;100799.00;6204544;23;20049;-87
2023/02/01 00:11:24;;;;;;;13.60;7.70;;;;;;;1.86;66.15;100797.19;6228319;23;20007;-87
2023/02/01 00:14:09;;;;;;;17.58;8.00;;;;;;;1.86;66.16;100811.28;6260558;22;20023;-88
2023/02/01 00:16:46;;;;;;;13.77;6.78;;;;;;;1.78;66.18;100796.84;6266100;23;19996;-88
2023/02/01 00:19:14;;;;;;;16.35;8.02;;;;;;;1.89;66.43;100812.88;6240951;23;20059;-89
2023/02/01 00:21:43;;;;;;;14.30;7.60;;;;;;;1.85;65.97;100801.66;6240687;23;20018;-89
2023/02/01 00:24:12;;;;;;;14.45;7.90;;;;;;;1.94;65.96;100802.81;6215665;23;20044;-88
2023/02/01 00:26:41;;;;;;;14.88;8.13;;;;;;;1.84;66.03;100804.41;6265834;23;20014;-90
2023/02/01 00:29:17;;;;;;;16.50;8.25;;;;;;;1.81;66.23;100809.91;6263737;23;20004;-89
2023/02/01 00:31:44;;;;;;;16.85;8.18;;;;;;;1.62;66.18;100776.66;6217474;23;20012;-90
2023/02/01 00:34:23;;;;;;;15.77;8.07;;;;;;;1.83;66.25;100813.31;6242268;23;20004;-88
2023/02/01 00:36:54;;;;;;;16.08;7.40;;;;;;;1.73;66.29;100799.78;6266705;22;20436;-87
2023/02/01 00:39:28;;;;;;;14.88;7.70;;;;;;;1.74;66.40;100798.00;6260706;23;20015;-87
2023/02/01 00:41:59;;;;;;;14.57;8.05;;;;;;;1.77;66.67;100814.53;6260922;23;20086;-88
2023/02/01 00:44:32;;;;;;;17.65;7.95;;;;;;;1.72;66.77;100800.75;6262719;23;20007;-87
2023/02/01 00:47:00;;;;;;;13.65;7.32;;;;;;;1.75;66.35;100800.53;6210839;23;20023;-86
2023/02/01 00:49:29;;;;;;;17.70;8.60;;;;;;;1.54;66.33;100767.50;6255658;23;20018;-87
2023/02/01 00:52:04;;;;;;;14.65;8.35;;;;;;;1.72;66.21;100794.59;6207636;23;20024;-86
2023/02/01 00:54:30;;;;;;;;;;;;;;;1.75;66.21;100805.84;6225945;23;20008;-87
2023/02/01 00:56:55;;;;;;;;;;;;;;;1.68;66.30;100807.19;6254526;23;20441;-87
2023/02/01 00:59:26;;;;;;;16.07;7.77;;;;;;;1.63;66.50;100796.91;6281983;22;19911;-87
2023/02/01 01:02:14;;;;;;;15.93;7.53;;;;;;;1.73;66.34;100812.19;6239746;23;20016;-85
2023/02/01 01:05:07;;;;;;;16.40;8.13;;;;;;;1.65;65.95;100796.81;6258883;23;20031;-86
2023/02/01 01:07:34;;;;;;;13.82;7.70;;;;;;;1.75;66.11;100815.59;6256396;22;20019;-87
2023/02/01 01:10:05;;;;;;;16.55;8.13;;;;;;;1.64;66.02;100800.41;6227981;23;20020;-87
2023/02/01 01:12:36;;;;;;;13.70;7.38;;;;;;;1.75;65.82;100805.00;6259027;23;20026;-88
2023/02/01 01:15:05;;;;;;;15.35;7.32;;;;;;;1.77;65.36;100808.41;6228630;23;20035;-89
2023/02/01 01:17:45;;;;;;;16.08;7.80;;;;;;;1.73;65.14;100798.94;6262945;23;20000;-87
2023/02/01 01:20:14;;;;;;;13.18;7.20;;;;;;;1.89;64.69;100816.38;6256376;23;20042;-87
2023/02/01 01:22:41;;;;;;;14.50;7.63;;;;;;;1.97;64.90;100815.06;6207630;23;20128;-87
2023/02/01 01:25:08;;;;;;;13.95;7.60;;;;;;;2.03;65.02;100825.25;6255033;23;20070;-86
2023/02/01 01:27:38;;;;;;;16.75;8.45;;;;;;;2.03;64.81;100807.50;6233230;23;20038;-87
2023/02/01 01:30:11;;;;;;;15.88;8.25;;;;;;;1.93;64.94;100787.03;6266435;22;20012;-88
2023/02/01 01:32:38;;;;;;;17.98;8.40;;;;;;;2.10;65.01;100810.63;6266126;23;20004;-88
2023/02/01 01:35:05;;;;;;;;;;;;;;;2.28;64.55;100819.16;6238763;23;20004;-88
2023/02/01 01:37:42;;;;;;;16.25;8.23;;;;;;;2.16;64.96;100817.31;6287648;22;19907;-86
2023/02/01 01:40:11;;;;;;;16.20;8.25;;;;;;;2.27;64.68;100812.13;6207129;23;20004;-87
2023/02/01 01:42:39;;;;;;;15.27;8.43;;;;;;;2.12;64.78;100782.19;6278398;22;20012;-87
2023/02/01 01:45:27;;;;;;;17.48;8.98;;;;;;;2.15;64.74;100800.53;6247185;22;20003;-88
2023/02/01 01:48:03;;;;;;;17.30;8.38;;;;;;;2.14;64.42;100793.53;6266384;22;20059;-88
2023/02/01 01:50:33;;;;;;;18.20;8.15;;;;;;;2.40;63.94;100814.81;6267422;22;20012;-86
2023/02/01 01:53:01;;;;;;;17.88;8.10;;;;;;;2.36;64.13;100815.97;6257740;22;20114;-87
2023/02/01 01:55:28;;;;;;;15.60;8.25;;;;;;;2.27;64.28;100812.13;6280254;22;20008;-86
2023/02/01 01:58:00;;;;;;;17.85;8.90;;;;;;;2.33;64.17;100825.81;6264141;22;20456;-87
2023/02/01 02:00:26;;;;;;;18.10;9.10;;;;;;;2.19;64.80;100827.72;6293206;22;19995;-87
2023/02/01 02:02:59;;;;;;;17.15;9.02;;;;;;;2.03;64.94;100809.31;6275778;22;20061;-87
2023/02/01 02:05:28;;;;;;;16.45;8.48;;;;;;;2.04;65.47;100826.97;6251011;22;20019;-84
2023/02/01 02:07:57;;;;;;;15.73;8.70;;;;;;;2.04;65.52;100834.91;6248744;22;20472;-82
2023/02/01 02:11:00;;;;;;;20.30;8.95;;;;;;;1.85;66.45;100833.47;6267241;22;20035;-87
2023/02/01 02:13:41;;;;;;;15.90;8.60;;;;;;;1.76;66.98;100833.22;6290831;22;20016;-86
2023/02/01 02:16:28;;;;;;;15.90;8.38;;;;;;;1.66;67.31;100831.19;6262326;22;20011;-88
2023/02/01 02:19:19;;;;;;;17.23;8.52;;;;;;;1.70;67.26;100829.16;6291530;22;20015;-87
2023/02/01 02:21:58;;;;;;;15.65;8.52;;;;;;;1.52;67.57;100827.69;6287696;22;19996;-86
2023/02/01 02:24:54;;;;;;;16.85;8.63;;;;;;;1.53;67.37;100842.66;6287890;22;20071;-87
2023/02/01 02:27:34;;;;;;;17.35;8.50;;;;;;;1.51;67.73;100829.50;6288573;22;20023;-87
2023/02/01 02:30:12;;;;;;;15.55;8.43;;;;;;;1.62;67.79;100834.13;6261854;22;20026;-86
2023/02/01 02:32:53;;;;;;;17.17;8.80;;;;;;;1.45;67.80;100836.06;6288531;22;20021;-86
2023/02/01 02:35:53;;;;;;;18.02;8.85;;;;;;;1.61;67.23;100835.06;6238716;22;20125;-87
2023/02/01 02:38:42;;;;;;;17.05;8.25;;;;;;;1.56;67.37;100832.69;6232354;22;20004;-89
2023/02/01 02:47:52;;;;;;;19.40;8.55;;;;;;;1.57;66.98;100828.25;6267200;22;20019;-86
2023/02/01 03:04:40;;;;;;;16.40;8.65;;;;;;;1.61;67.33;100835.06;6276726;22;20046;-88
2023/02/01 03:07:45;;;;;;;16.00;8.15;;;;;;;1.59;67.42;100836.94;6219215;22;20003;-88
2023/02/01 03:10:26;;;;;;;15.23;8.05;;;;;;;1.65;67.68;100836.56;6291457;22;20011;-87
2023/02/01 03:13:05;;;;;;;18.23;9.15;;;;;;;1.79;66.85;100833.84;6289602;22;20030;-89
2023/02/01 03:15:58;;;;;;;19.25;8.25;;;;;;;1.66;67.21;100823.22;6267152;22;20022;-87
2023/02/01 03:18:59;;;;;;;21.75;9.02;;;;;;;1.72;67.16;100839.66;6295984;22;20046;-87
2023/02/01 03:21:37;;;;;;;17.02;8.85;;;;;;;1.71;66.46;100830.88;6280905;22;20000;-88
2023/02/01 03:24:08;;;;;;;17.20;8.75;;;;;;;1.77;66.60;100846.34;6225482;22;20057;-88
2023/02/01 03:26:38;;;;;;;19.98;9.00;;;;;;;1.83;66.68;100845.97;6297441;22;20010;-87
2023/02/01 03:29:18;;;;;;;21.58;10.13;;;;;;;1.77;67.46;100841.06;6265722;22;20042;-88
2023/02/01 03:31:45;;;;;;;18.67;9.25;;;;;;;1.65;68.38;100831.25;6283370;22;20089;-87
2023/02/01 03:34:14;;;;;;;21.20;9.18;;;;;;;1.80;68.78;100846.19;6208213;22;20138;-87
2023/02/01 03:36:50;;;;;;;18.17;9.13;;;;;;;1.74;68.79;100857.16;6239382;22;20003;-87
2023/02/01 03:39:45;;;;;;;18.92;9.18;;;;;;;1.56;69.43;100837.16;6275240;22;19988;-88
2023/02/01 03:42:39;;;;;;;20.05;9.93;;;;;;;1.53;70.13;100863.84;6291134;22;20073;-88
2023/02/01 03:45:43;;;;;;;18.95;9.85;;;;;;;1.56;70.15;100859.19;6259014;22;20016;-87
2023/02/01 03:48:15;;;;;;;17.48;9.18;;;;;;;1.55;69.96;100846.91;6257074;22;20022;-87
2023/02/01 03:50:47;;;;;;;23.80;10.82;;;;;;;1.64;70.21;100856.06;6286229;22;20065;-87
2023/02/01 03:53:41;;;;;;;19.17;9.65;;;;;;;1.70;69.75;100855.66;6254427;22;20061;-87
2023/02/01 03:56:11;;;;;;;21.02;10.32;;;;;;;1.67;69.44;100864.66;6256754;22;20004;-88
2023/02/01 03:58:58;;;;;;;19.38;9.57;;;;;;;1.61;69.64;100861.56;6235553;22;20003;-88
2023/02/01 04:01:25;;;;;;;22.23;9.90;;;;;;;1.57;69.49;100865.34;6240790;22;20023;-88
2023/02/01 04:03:53;;;;;;;19.00;9.15;;;;;;;1.56;69.36;100866.31;6239979;22;20008;-87
2023/02/01 04:06:19;;;;;;;18.92;10.02;;;;;;;1.45;69.93;100866.97;6232077;22;20015;-86
2023/02/01 04:08:50;;;;;;;20.80;10.82;;;;;;;1.48;70.59;100896.78;6282287;22;20003;-88
2023/02/01 04:11:18;;;;;;;21.40;11.13;;;;;;;1.37;71.16;100880.72;6228020;22;20359;-85
2023/02/01 04:13:46;;;;;;;24.95;10.50;;;;;;;1.17;72.26;100854.63;6230536;22;20063;-88
2023/02/01 04:16:13;;;;;;;20.13;10.57;;;;;;;1.22;72.36;100879.88;6294572;22;20391;-86
2023/02/01 04:18:39;;;;;;;20.55;10.52;;;;;;;1.32;72.27;100880.16;6262885;22;20027;-86
2023/02/01 04:21:07;;;;;;;22.08;10.60;;;;;;;1.38;72.35;100882.44;6264722;22;20011;-87
2023/02/01 04:23:44;;;;;;;20.50;10.30;;;;;;;1.36;72.20;100873.72;6242673;22;20008;-87
2023/02/01 04:26:12;;;;;;;24.38;11.02;;;;;;;1.41;72.38;100889.34;6295722;22;20003;-88
2023/02/01 04:28:39;;;;;;;20.25;10.63;;;;;;;1.26;72.53;100899.06;6268692;22;20459;-87
2023/02/01 04:31:07;;;;;;;22.30;11.25;;;;;;;1.20;73.00;100895.00;6294814;22;20038;-88
2023/02/01 04:33:36;;;;;;;19.73;9.88;;;;;;;1.08;73.86;100890.47;6295830;22;20019;-89
2023/02/01 04:36:13;;;;;;;25.38;11.27;;;;;;;1.01;74.00;100902.41;6297263;22;20008;-87
2023/02/01 04:38:43;;;;;;;21.17;9.77;;;;;;;0.95;74.11;100882.44;6291799;22;20107;-88
2023/02/01 04:41:12;;;;;;;24.05;11.00;;;;;;;0.84;74.89;100892.81;6265702;22;20007;-87
2023/02/01 04:43:48;;;;;;;21.65;10.10;;;;;;;0.84;74.64;100882.22;6266744;22;20016;-87
2023/02/01 04:46:20;;;;;;;18.67;9.85;;;;;;;0.85;75.16;100907.78;6290343;22;20016;-88
2023/02/01 04:48:53;;;;;;;24.40;10.45;;;;;;;0.82;75.53;100908.81;6293795;22;19999;-88
2023/02/01 04:51:44;;;;;;;19.48;9.70;;;;;;;0.69;75.50;100889.31;6247276;22;20005;-86
2023/02/01 04:54:15;;;;;;;19.60;10.07;;;;;;;0.79;76.06;100916.06;6284995;22;20006;-86
2023/02/01 04:56:42;;;;;;;20.10;10.48;;;;;;;0.67;76.63;100916.81;6254407;22;20091;-87
2023/02/01 04:59:13;;;;;;;23.00;10.50;;;;;;;0.69;76.38;100920.22;6256241;22;20011;-86
2023/02/01 05:01:41;;;;;;;21.42;11.68;;;;;;;0.51;77.18;100893.88;6238970;22;21091;-86
2023/02/01 05:04:07;;;;;;;23.60;11.18;;;;;;;0.70;77.14;100929.84;6264373;22;20015;-87
2023/02/01 05:06:36;;;;;;;22.23;11.50;;;;;;;0.58;77.55;100931.41;6291565;22;20004;-89
2023/02/01 05:09:03;;;;;;;25.75;11.52;;;;;;;0.59;77.55;100930.50;6263911;22;20038;-88
2023/02/01 05:16:57;;;;;;;24.90;11.27;;;;;;;0.41;77.96;100933.25;6356671;22;20031;-89
2023/02/01 05:19:26;;;;;;;22.63;10.48;;;;;;;0.38;78.40;100922.03;6335805;22;20034;-90
2023/02/01 05:22:14;;;;;;;20.00;10.63;;;;;;;0.44;78.48;100932.22;6357988;22;20427;-87
2023/02/01 05:24:41;;;;;;;24.75;11.57;;;;;;;0.40;78.56;100941.31;6353115;22;20061;-86
2023/02/01 05:27:08;;;;;;;22.85;10.75;;;;;;;0.22;79.08;100921.19;6322545;22;20011;-88
2023/02/01 05:29:37;;;;;;;22.88;11.50;;;;;;;0.19;79.15;100938.09;6307788;22;20062;-90
2023/02/01 05:32:04;;;;;;;24.55;11.05;;;;;;;0.38;79.29;100969.63;6310348;22;20003;-87
2023/02/01 05:34:36;;;;;;;22.67;11.25;;;;;;;0.45;79.02;100973.63;6312951;22;20062;-87
2023/02/01 05:37:25;;;;;;;24.95;12.25;;;;;;;0.36;78.91;100951.19;6342259;22;19999;-89
2023/02/01 05:39:54;;;;;;;25.08;12.38;;;;;;;0.43;78.83;100962.28;6336911;22;20022;-89
2023/02/01 05:42:22;;;;;;;26.77;12.35;;;;;;;0.50;79.08;100982.16;6325396;22;20048;-89
2023/02/01 05:44:48;;;;;;;27.35;14.13;;;;;;;0.44;79.29;100973.72;6297712;22;20018;-88
2023/02/01 05:47:15;;;;;;;26.52;13.45;;;;;;;0.56;79.08;100979.16;6324796;22;19998;-87
2023/02/01 05:49:41;;;;;;;27.42;13.10;;;;;;;0.76;78.11;100985.06;6297331;22;20007;-86
2023/02/01 05:52:07;;;;;;;28.58;13.20;;;;;;;0.87;77.40;100969.41;6295190;22;20014;-84
2023/02/01 05:54:33;;;;;;;23.27;12.82;;;;;;;0.89;77.27;100986.06;6308105;22;20165;-85
2023/02/01 05:57:02;;;;;;;28.97;13.50;;;;;;;0.86;77.41;100980.94;6300936;22;20019;-85
2023/02/01 05:59:28;;;;;;;26.05;12.70;;;;;;;0.95;77.03;100993.63;6314358;22;20030;-89
2023/02/01 06:01:54;;;;;;;25.00;12.18;;;;;;;0.93;76.91;100989.38;6349980;22;20102;-87
2023/02/01 06:04:24;;;;;;;23.13;11.73;;;;;;;0.63;77.32;100967.28;6325046;22;20315;-87
2023/02/01 06:06:50;;;;;;;20.63;11.02;;;;;;;0.78;77.52;100986.69;6300131;22;20018;-83
2023/02/01 06:09:15;;;;;;;;;;;;;;;0.83;77.46;100991.72;6283106;22;20006;-81
2023/02/01 06:11:41;;;;;;;;;;;;;;;0.77;77.42;100997.34;6335025;22;19902;-80
2023/02/01 06:14:07;;;;;;;19.63;9.17;;;;;;;0.79;77.47;101006.06;6333651;22;19903;-85
2023/02/01 06:16:34;;;;;;;20.55;9.70;;;;;;;0.82;77.57;100995.31;6282420;22;20033;-82
2023/02/01 06:19:00;;;;;;;23.50;9.73;;;;;;;0.95;77.09;100998.91;6283392;22;20066;-81
2023/02/01 06:21:34;;;;;;;27.73;11.10;;;;;;;1.12;76.69;100991.75;6308853;22;20056;-82
2023/02/01 06:23:59;;;;;;;24.60;10.50;;;;;;;1.13;76.43;100994.34;6335091;22;20052;-83
2023/02/01 06:26:25;;;;;;;18.17;10.20;;;;;;;1.29;75.55;100988.97;6306002;22;20089;-84
2023/02/01 06:28:52;;;;;;;23.23;10.48;;;;;;;1.44;75.71;100998.59;6283550;22;20260;-84
2023/02/01 06:31:20;;;;;;;21.80;9.80;;;;;;;1.27;75.87;100996.16;6337314;22;20026;-83
2023/02/01 06:33:48;;;;;;;18.75;10.05;;;;;;;1.36;75.36;100987.66;6312045;22;20006;-85
2023/02/01 06:36:18;;;;;;;23.90;11.25;;;;;;;1.56;74.83;101002.31;6291391;22;20010;-87
2023/02/01 06:38:46;;;;;;;21.55;10.98;;;;;;;1.48;74.91;100989.53;6315414;22;20007;-87
2023/02/01 06:41:12;;;;;;;20.23;10.35;;;;;;;1.51;74.36;100988.50;6297868;22;20390;-88
2023/02/01 06:43:41;;;;;;;;;;;;;;;1.81;74.04;100998.16;6307034;22;20010;-90
2023/02/01 06:46:36;;;;;;;19.52;10.30;;;;;;;1.81;73.74;101000.78;6358865;22;19906;-90
2023/02/01 06:49:04;;;;;;;25.17;11.40;;;;;;;1.80;73.17;100976.09;6326764;22;20013;-89
2023/02/01 06:51:50;;;;;;;31.17;11.65;;;;;;;1.69;73.09;100949.41;6278179;22;20280;-89
2023/02/01 06:54:16;;;;;;;;;;;;;;;1.99;72.65;101002.28;6327029;22;20436;-88
2023/02/01 06:57:20;;;;;;;30.30;11.80;;;;;;;2.36;72.13;101007.00;6352470;22;19898;-88
2023/02/01 07:00:08;;;;;;;23.10;11.40;;;;;;;2.59;71.12;101005.50;6346552;22;19999;-89
2023/02/01 07:02:37;;;;;;;28.55;12.35;;;;;;;2.71;70.42;100986.97;6355706;22;19998;-86
2023/02/01 07:05:08;;;;;;;21.90;10.90;;;;;;;4.32;65.93;101014.75;6327806;22;20074;-88
2023/02/01 07:08:04;;;;;;;25.20;10.45;;;;;;;4.69;64.03;101019.19;6330109;22;20018;-88
2023/02/01 07:10:30;;;;;;;18.40;9.32;;;;;;;4.56;63.59;101012.09;6355071;22;20102;-82
2023/02/01 07:12:59;;;;;;;16.90;9.77;;;;;;;4.35;64.15;101014.53;6301969;22;20072;-88
2023/02/01 07:15:26;;;;;;;23.38;10.25;;;;;;;4.60;63.59;101012.72;6286168;22;20321;-84
2023/02/01 07:17:57;;;;;;;17.63;8.68;;;;;;;5.72;59.15;101013.00;6285805;22;20451;-84
2023/02/01 07:20:24;;;;;;;19.35;9.43;;;;;;;5.98;59.47;101012.78;6314803;22;20002;-83
2023/02/01 07:22:56;;;;;;;15.43;8.45;;;;;;;5.88;58.88;101014.47;6287726;22;20081;-88
2023/02/01 07:25:24;;;;;;;16.52;8.90;;;;;;;6.91;55.74;101014.97;6359160;22;20002;-84
2023/02/01 07:27:52;;;;;;;12.80;7.82;;;;;;;7.87;52.53;100983.56;6291212;22;20025;-87
2023/02/01 07:30:18;;;;;;;12.18;8.18;;;;;;;9.70;48.95;100997.13;6334668;22;20033;-80
2023/02/01 07:32:44;;;;;;;14.23;7.80;;;;;;;9.94;47.18;100995.75;6335474;22;20416;-86
2023/02/01 07:35:10;;;;;;;13.73;8.18;;;;;;;10.28;45.58;100996.03;6282294;22;20026;-84
2023/02/01 07:37:35;;;;;;;21.40;8.73;;;;;;;10.47;45.08;100978.09;6282327;22;20261;-83
2023/02/01 07:40:02;;;;;;;13.00;7.80;;;;;;;11.14;43.19;100990.13;6288363;22;19999;-85
2023/02/01 07:42:27;;;;;;;12.05;7.95;;;;;;;11.31;41.95;101006.41;6286355;22;20006;-84
2023/02/01 07:44:53;;;;;;;13.45;8.13;;;;;;;11.12;42.19;100994.81;6262753;22;20007;-83
2023/02/01 07:47:20;;;;;;;13.80;8.40;;;;;;;12.28;40.51;100997.16;6303674;22;20011;-89
2023/02/01 07:49:46;;;;;;;17.90;10.25;;;;;;;13.14;38.76;101003.19;6307906;22;20045;-88
2023/02/01 07:52:56;;;;;;;19.13;9.65;;;;;;;13.51;37.26;100979.19;6251146;22;20462;-89
2023/02/01 07:55:24;;;;;;;16.20;9.95;;;;;;;14.56;37.69;100986.16;6374598;22;20132;-87
2023/02/01 07:58:09;;;;;;;20.92;10.65;;;;;;;13.53;36.22;100987.09;6347484;22;20002;-89
2023/02/01 08:05:56;;;;;;;18.23;12.00;;;;;;;14.36;35.67;100988.47;6261792;22;20165;-89
2023/02/01 08:09:12;;;;;;;19.83;11.30;;;;;;;15.01;34.50;101002.59;6188707;23;20043;-89
2023/02/01 08:12:05;;;;;;;15.20;10.98;;;;;;;14.99;34.05;100990.09;6264605;23;20016;-90
2023/02/01 08:14:45;;;;;;;13.50;10.38;;;;;;;16.22;32.31;101006.94;6242084;22;20024;-87
2023/02/01 08:17:11;;;;;;;14.90;9.90;;;;;;;16.17;31.32;100976.84;6252739;23;20004;-88
2023/02/01 08:19:41;;;;;;;13.90;10.18;;;;;;;15.42;33.17;101000.38;6200413;23;20007;-88
2023/02/01 08:22:14;;;;;;;19.05;10.52;;;;;;;16.13;32.04;100999.94;6229198;23;20016;-88
2023/02/01 08:24:47;;;;;;;20.48;10.68;;;;;;;17.58;30.01;100993.44;6201052;23;20081;-86
2023/02/01 08:27:18;;;;;;;15.35;10.48;;;;;;;17.38;29.83;100985.16;6231686;23;20079;-88
2023/02/01 08:29:46;;;;;;;22.67;10.25;;;;;;;18.34;27.95;100977.94;6206392;23;20008;-86
2023/02/01 08:32:13;;;;;;;16.60;9.85;;;;;;;18.31;28.18;101008.31;6199469;23;20004;-87
2023/02/01 08:34:49;;;;;;;15.50;9.88;;;;;;;17.57;28.87;100997.22;6202563;23;20028;-85
2023/02/01 08:37:35;;;;;;;14.25;9.57;;;;;;;17.51;28.48;100990.66;6228861;23;20136;-90
2023/02/01 08:40:02;;;;;;;16.52;9.88;;;;;;;18.66;27.06;100980.97;6256205;23;20364;-87
2023/02/01 08:45:16;;;;;;;14.60;9.00;;;;;;;17.96;27.41;101018.41;6226629;23;20015;-85
2023/02/01 08:48:07;;;;;;;14.15;8.23;;;;;;;17.51;28.44;101002.41;6197507;23;20039;-87
2023/02/01 08:50:34;;;;;;;13.30;8.52;;;;;;;18.18;27.30;100999.25;6242977;23;20012;-85
2023/02/01 08:53:01;;;;;;;13.05;8.65;;;;;;;18.87;26.51;100992.75;6166391;23;20430;-86
2023/02/01 08:55:33;;;;;;;14.77;8.65;;;;;;;18.86;26.48;101000.09;6217370;23;20345;-86
2023/02/01 08:58:00;;;;;;;19.65;8.95;;;;;;;20.58;25.06;100992.66;6246990;23;20045;-84
2023/02/01 09:00:28;;;;;;;16.15;9.80;;;;;;;21.68;23.53;100989.50;6220558;23;20038;-84
2023/02/01 09:02:57;;;;;;;18.85;10.80;;;;;;;22.46;22.66;100977.00;6218922;23;20088;-86
2023/02/01 09:05:30;;;;;;;13.00;9.98;;;;;;;21.29;23.71;100994.25;6251923;22;20086;-87
2023/02/01 09:08:00;;;;;;;14.70;9.65;;;;;;;22.03;22.96;100993.50;6299407;22;20061;-86
2023/02/01 09:10:28;;;;;;;12.55;8.63;;;;;;;21.50;23.22;100994.94;6273691;22;19999;-87
2023/02/01 09:13:01;;;;;;;13.85;8.88;;;;;;;20.92;23.53;100993.28;6246856;22;19999;-87
2023/02/01 09:15:26;;;;;;;11.82;8.52;;;;;;;21.06;24.04;101010.41;6241574;22;20008;-86
2023/02/01 09:17:58;;;;;;;12.73;10.10;;;;;;;19.05;25.33;100987.53;6237883;22;20011;-87
2023/02/01 09:20:26;;;;;;;17.20;10.68;;;;;;;16.83;28.38;101001.19;6246974;22;20082;-88
2023/02/01 09:23:03;;;;;;;14.70;10.52;;;;;;;15.64;30.40;100985.09;6250775;22;20059;-87
2023/02/01 09:25:51;;;;;;;14.68;10.27;;;;;;;14.85;31.54;100954.88;6270493;22;20015;-88
2023/02/01 09:28:18;;;;;;;13.05;8.82;;;;;;;14.10;33.08;100984.22;6237750;22;20011;-86
2023/02/01 09:30:51;;;;;;;17.27;10.35;;;;;;;14.63;32.56;100980.88;6261398;22;20008;-87
2023/02/01 09:33:23;;;;;;;15.68;9.40;;;;;;;16.30;30.02;100989.75;6290688;22;20484;-87
2023/02/01 09:36:16;;;;;;;11.70;8.65;;;;;;;15.94;30.39;100976.97;6260897;22;20003;-88
2023/02/01 09:38:44;;;;;;;14.05;8.00;;;;;;;15.10;31.80;100958.19;6267238;22;20018;-89
2023/02/01 09:41:40;;;;;;;14.85;7.95;;;;;;;16.57;29.49;100972.69;6240190;22;20010;-89
2023/02/01 09:44:14;;;;;;;13.40;7.47;;;;;;;18.30;27.56;100963.06;6291089;22;20012;-86
2023/02/01 09:46:43;;;;;;;;;;;;;;;18.61;26.30;100958.94;6292691;22;20011;-86
2023/02/01 09:49:17;;;;;;;9.18;6.22;;;;;;;18.35;26.47;100955.16;6290808;22;19899;-88
2023/02/01 09:51:50;;;;;;;8.95;6.45;;;;;;;19.44;24.61;100946.84;6236982;22;20003;-87
2023/02/01 09:54:35;;;;;;;9.05;6.50;;;;;;;20.13;24.21;100959.03;6262578;22;19999;-89
2023/02/01 09:57:08;;;;;;;11.63;6.85;;;;;;;19.99;24.26;100956.38;6262929;22;20003;-87
2023/02/01 10:00:21;;;;;;;10.45;7.43;;;;;;;22.14;22.05;100935.25;6263293;22;20034;-89
2023/02/01 10:02:51;;;;;;;14.90;7.43;;;;;;;23.44;21.11;100941.09;6265692;22;20000;-86
2023/02/01 10:05:42;;;;;;;9.57;6.70;;;;;;;22.71;20.64;100946.69;6261026;22;20016;-88
2023/02/01 10:08:40;;;;;;;13.23;8.75;;;;;;;20.80;22.69;100954.91;6288614;22;20045;-87
2023/02/01 10:11:50;;;;;;;13.75;7.03;;;;;;;18.44;25.73;100930.44;6238641;22;20067;-87
2023/02/01 10:14:31;;;;;;;13.07;7.38;;;;;;;20.76;23.31;100926.34;6167595;23;20008;-87
2023/02/01 10:17:11;;;;;;;13.07;6.78;;;;;;;21.55;22.37;100925.88;6261997;22;20014;-88
2023/02/01 10:20:11;;;;;;;8.98;6.28;;;;;;;21.79;21.99;100915.91;6300602;22;20008;-87
2023/02/01 10:22:55;;;;;;;9.88;6.82;;;;;;;20.31;23.53;100915.47;6298862;22;20012;-90
2023/02/01 10:25:28;;;;;;;9.13;6.20;;;;;;;20.40;23.56;100910.59;6247375;22;20004;-87
2023/02/01 10:27:57;;;;;;;14.45;7.35;;;;;;;20.36;23.47;100891.09;6287657;22;20008;-88
2023/02/01 10:30:29;;;;;;;10.40;6.70;;;;;;;20.67;23.41;100875.75;6281454;22;20011;-89
2023/02/01 10:33:10;;;;;;;10.45;6.13;;;;;;;20.80;22.44;100886.59;6234994;22;20141;-87
2023/02/01 10:36:41;;;;;;;13.00;6.25;;;;;;;22.77;20.98;100890.09;6261765;22;20029;-88
2023/02/01 10:39:09;;;;;;;9.70;6.35;;;;;;;22.13;21.48;100882.41;6196314;22;20015;-89
2023/02/01 10:41:38;;;;;;;8.50;5.80;;;;;;;21.10;22.37;100865.94;6253990;22;20031;-86
2023/02/01 10:44:09;;;;;;;11.57;6.80;;;;;;;20.76;22.64;100890.81;6203914;22;20114;-87
2023/02/01 10:46:36;;;;;;;13.30;8.68;;;;;;;19.99;23.40;100879.13;6253791;22;20103;-87
2023/02/01 10:49:06;;;;;;;10.23;6.32;;;;;;;21.67;21.85;100881.09;6227520;22;20004;-85
2023/02/01 10:52:23;;;;;;;11.30;6.78;;;;;;;20.12;22.88;100864.56;6258979;22;20014;-89
2023/02/01 10:54:55;;;;;;;12.55;5.93;;;;;;;17.56;26.14;100874.06;6259823;22;20030;-89
2023/02/01 10:57:25;;;;;;;8.90;5.55;;;;;;;17.92;26.22;100852.03;6287395;22;20451;-88
2023/02/01 10:59:55;;;;;;;9.50;5.25;;;;;;;17.99;25.61;100878.44;6261481;22;20122;-89
2023/02/01 11:02:29;;;;;;;9.13;5.22;;;;;;;18.20;25.61;100858.41;6211259;22;20046;-88
2023/02/01 11:05:22;;;;;;;9.88;6.72;;;;;;;19.36;24.79;100877.00;6263786;22;20015;-88
2023/02/01 11:07:59;;;;;;;12.18;5.82;;;;;;;19.80;24.04;100861.78;6271082;22;20015;-88
2023/02/01 11:10:43;;;;;;;9.10;5.20;;;;;;;19.43;23.90;100869.66;6273754;22;19992;-86
2023/02/01 11:13:19;;;;;;;8.35;4.47;;;;;;;19.52;23.63;100851.19;6262732;22;20011;-89
2023/02/01 11:15:47;;;;;;;13.48;5.30;;;;;;;19.51;23.92;100861.25;6233964;22;20004;-87
2023/02/01 11:18:26;;;;;;;7.80;5.88;;;;;;;18.36;25.36;100860.72;6210491;22;20099;-86
2023/02/01 11:20:55;;;;;;;7.90;5.10;;;;;;;16.84;26.46;100869.81;6237164;22;20168;-88
2023/02/01 11:23:27;;;;;;;10.07;5.30;;;;;;;14.64;29.37;100874.34;6263488;22;20022;-88
2023/02/01 11:26:00;;;;;;;8.65;4.30;;;;;;;13.22;31.76;100858.19;6247974;22;20018;-88
2023/02/01 11:28:31;;;;;;;12.18;6.97;;;;;;;12.71;33.10;100863.00;6240888;22;20082;-86
2023/02/01 11:31:04;;;;;;;11.52;6.75;;;;;;;11.89;34.95;100860.25;6240298;22;20012;-88
2023/02/01 11:33:34;;;;;;;8.63;4.95;;;;;;;11.08;35.95;100826.59;6234214;22;20023;-87
2023/02/01 11:36:16;;;;;;;16.08;5.53;;;;;;;10.63;37.51;100859.94;6256147;22;20007;-86
2023/02/01 11:38:52;;;;;;;10.48;5.13;;;;;;;10.28;38.46;100858.97;6234697;22;20008;-87
2023/02/01 11:41:26;;;;;;;11.38;5.35;;;;;;;10.09;38.89;100856.41;6250784;22;20007;-85
2023/02/01 11:43:57;;;;;;;7.93;4.80;;;;;;;9.70;39.37;100835.19;6224631;22;20028;-86
2023/02/01 11:46:29;;;;;;;8.63;4.00;;;;;;;9.90;39.04;100858.25;6252946;22;20115;-84
2023/02/01 11:49:19;;;;;;;10.00;3.90;;;;;;;9.52;39.49;100849.41;6223788;22;20482;-85
2023/02/01 11:52:11;;;;;;;7.15;4.40;;;;;;;9.98;39.02;100837.84;6254368;22;20083;-85
2023/02/01 11:54:56;;;;;;;8.63;4.90;;;;;;;10.56;38.68;100846.28;6273553;22;20007;-86
2023/02/01 11:57:54;;;;;;;9.95;4.70;;;;;;;11.75;35.90;100839.31;6275528;22;20467;-84
2023/02/01 12:00:38;;;;;;;16.33;6.45;;;;;;;12.56;34.88;100841.28;6275521;22;20059;-87
2023/02/01 12:03:26;;;;;;;11.48;6.20;;;;;;;11.81;36.09;100833.28;6287220;22;20030;-86
2023/02/01 12:08:49;;;;;;;8.85;5.30;;;;;;;11.03;37.51;100837.00;6253092;22;20031;-85
2023/02/01 12:11:38;;;;;;;8.05;5.20;;;;;;;10.10;38.88;100799.00;6229693;23;19996;-87
2023/02/01 12:14:26;;;;;;;7.68;4.95;;;;;;;10.18;39.22;100844.72;6231109;23;20004;-87
2023/02/01 12:17:00;;;;;;;10.98;5.32;;;;;;;9.81;40.58;100847.53;6258920;23;20011;-87
2023/02/01 12:20:01;;;;;;;9.73;5.13;;;;;;;9.48;41.40;100837.31;6255707;23;20019;-85
2023/02/01 12:22:39;;;;;;;7.05;4.55;;;;;;;9.11;42.22;100844.50;6222434;23;20515;-84
2023/02/01 12:25:35;;;;;;;9.95;4.60;;;;;;;8.83;42.50;100837.28;6233593;23;20000;-83
2023/02/01 12:28:23;;;;;;;7.10;4.03;;;;;;;8.82;43.08;100840.09;6236324;23;19996;-84
2023/02/01 12:31:00;;;;;;;8.43;4.20;;;;;;;8.28;44.16;100820.13;6263732;23;20016;-87
2023/02/01 12:33:46;;;;;;;9.65;4.20;;;;;;;8.60;43.73;100826.03;6226094;23;20378;-87
2023/02/01 12:36:30;;;;;;;8.32;4.25;;;;;;;8.41;44.30;100839.47;6252514;23;20007;-85
2023/02/01 12:39:44;;;;;;;12.68;4.43;;;;;;;7.81;45.30;100823.50;6261915;23;19996;-89